createdAt,value
2023-02-15T00:01:16.622Z,96555.00
2023-02-15T00:03:43.286Z,96553.00
2023-02-15T00:06:09.791Z,96557.59
2023-02-15T00:08:36.365Z,96558.09
2023-02-15T00:11:11.597Z,96557.53
2023-02-15T00:13:39.752Z,96553.25
2023-02-15T00:16:08.180Z,96548.91
2023-02-15T00:18:34.887Z,96550.56
2023-02-15T00:21:07.680Z,96544.53
2023-02-15T00:23:34.673Z,96547.03
2023-02-15T00:26:11.963Z,96544.53
2023-02-15T00:28:40.036Z,96546.22
2023-02-15T00:31:09.402Z,96549.44
2023-02-15T00:33:37.009Z,96544.28
2023-02-15T00:36:05.062Z,96550.03
2023-02-15T00:38:32.478Z,96545.47
2023-02-15T00:41:01.479Z,96544.34
2023-02-15T00:43:29.991Z,96543.41
2023-02-15T00:45:57.028Z,96544.72
2023-02-15T00:48:24.087Z,96548.44
2023-02-15T00:50:55.927Z,96536.09
2023-02-15T00:53:23.489Z,96537.56
2023-02-15T00:55:50.175Z,96532.56
2023-02-15T00:58:17.190Z,96533.78
2023-02-15T01:00:46.644Z,96523.47
2023-02-15T01:03:15.551Z,96519.56
2023-02-15T01:05:42.681Z,96516.13
2023-02-15T01:08:09.439Z,96516.97
2023-02-15T01:10:38.308Z,96518.63
2023-02-15T01:13:05.360Z,96507.41
2023-02-15T01:15:36.415Z,96515.00
2023-02-15T01:18:03.315Z,96516.78
2023-02-15T01:20:30.880Z,96510.66
2023-02-15T01:22:58.144Z,96508.31
2023-02-15T01:25:25.160Z,96499.59
2023-02-15T01:27:51.732Z,96508.41
2023-02-15T01:30:18.518Z,96500.63
2023-02-15T01:32:45.107Z,96496.19
2023-02-15T01:35:12.294Z,96496.09
2023-02-15T01:37:39.167Z,96489.88
2023-02-15T01:40:13.133Z,96488.09
2023-02-15T01:42:39.871Z,96496.44
2023-02-15T01:45:21.724Z,96494.63
2023-02-15T01:48:26.276Z,96485.97
2023-02-15T01:50:57.168Z,96487.72
2023-02-15T01:53:28.253Z,96489.03
2023-02-15T01:55:57.856Z,96490.31
2023-02-15T01:58:26.897Z,96485.13
2023-02-15T02:00:55.161Z,96487.16
2023-02-15T02:03:37.366Z,96489.13
2023-02-15T02:06:04.094Z,96485.03
2023-02-15T02:08:31.580Z,96485.00
2023-02-15T02:10:58.124Z,96478.69
2023-02-15T02:13:24.821Z,96475.38
2023-02-15T02:16:09.146Z,96468.38
2023-02-15T02:18:41.585Z,96470.72
2023-02-15T02:21:50.700Z,96470.06
2023-02-15T02:24:53.704Z,96480.75
2023-02-15T02:27:29.179Z,96473.88
2023-02-15T02:30:17.163Z,96471.28
2023-02-15T02:35:45.461Z,96474.13
2023-02-15T02:38:32.204Z,96467.69
2023-02-15T02:41:27.924Z,96463.34
2023-02-15T02:44:08.468Z,96465.97
2023-02-15T02:46:59.625Z,96466.63
2023-02-15T02:49:41.149Z,96465.72
2023-02-15T02:52:47.586Z,96458.94
2023-02-15T02:55:16.859Z,96464.66
2023-02-15T02:57:54.305Z,96467.19
2023-02-15T03:00:28.274Z,96466.38
2023-02-15T03:03:06.397Z,96466.41
2023-02-15T03:05:37.874Z,96474.44
2023-02-15T03:08:06.934Z,96474.44
2023-02-15T03:10:36.257Z,96466.41
2023-02-15T03:13:05.198Z,96461.00
2023-02-15T03:15:56.130Z,96468.13
2023-02-15T03:18:27.878Z,96460.75
2023-02-15T03:20:56.712Z,96453.59
2023-02-15T03:23:26.629Z,96454.72
2023-02-15T03:26:02.620Z,96449.25
2023-02-15T03:28:42.111Z,96456.56
2023-02-15T03:31:10.895Z,96453.50
2023-02-15T03:33:46.086Z,96452.56
2023-02-15T03:36:20.822Z,96454.59
2023-02-15T03:39:00.639Z,96456.22
2023-02-15T03:41:35.288Z,96453.53
2023-02-15T03:44:08.389Z,96456.78
2023-02-15T03:46:43.930Z,96455.84
2023-02-15T03:49:18.436Z,96462.72
2023-02-15T03:51:49.518Z,96462.28
2023-02-15T03:54:40.482Z,96470.91
2023-02-15T03:57:29.132Z,96461.03
2023-02-15T04:00:14.461Z,96457.69
2023-02-15T04:03:20.942Z,96457.19
2023-02-15T04:05:47.760Z,96467.72
2023-02-15T04:08:14.306Z,96461.78
2023-02-15T04:10:53.048Z,96465.13
2023-02-15T04:13:25.156Z,96470.00
2023-02-15T04:16:07.991Z,96464.47
2023-02-15T04:19:00.880Z,96460.28
2023-02-15T04:21:49.129Z,96461.22
2023-02-15T04:24:35.248Z,96467.47
2023-02-15T04:27:02.261Z,96468.03
2023-02-15T04:29:29.398Z,96467.28
2023-02-15T04:31:57.608Z,96466.50
2023-02-15T04:34:25.127Z,96466.63
2023-02-15T04:36:51.982Z,96467.41
2023-02-15T04:39:19.690Z,96467.75
2023-02-15T04:41:46.327Z,96460.59
2023-02-15T04:44:13.035Z,96464.00
2023-02-15T04:46:39.546Z,96460.81
2023-02-15T04:49:06.460Z,96456.81
2023-02-15T04:51:33.007Z,96459.16
2023-02-15T04:53:59.524Z,96455.56
2023-02-15T04:56:26.108Z,96462.69
2023-02-15T04:58:52.714Z,96463.53
2023-02-15T05:01:19.310Z,96469.50
2023-02-15T05:03:45.872Z,96470.44
2023-02-15T05:06:12.566Z,96465.81
2023-02-15T05:08:39.107Z,96464.25
2023-02-15T05:11:05.707Z,96466.66
2023-02-15T05:13:32.227Z,96458.22
2023-02-15T05:15:58.778Z,96461.41
2023-02-15T05:18:25.365Z,96466.59
2023-02-15T05:20:51.999Z,96459.47
2023-02-15T05:23:18.582Z,96458.44
2023-02-15T05:26:10.520Z,96463.81
2023-02-15T05:28:38.348Z,96468.44
2023-02-15T05:31:12.448Z,96468.81
2023-02-15T05:33:39.689Z,96471.78
2023-02-15T05:36:07.204Z,96471.78
2023-02-15T05:38:34.259Z,96472.47
2023-02-15T05:41:00.916Z,96469.50
2023-02-15T05:43:27.505Z,96472.00
2023-02-15T05:45:55.932Z,96467.66
2023-02-15T05:48:25.417Z,96472.63
2023-02-15T05:51:15.115Z,96470.66
2023-02-15T05:53:41.904Z,96470.06
2023-02-15T05:56:10.572Z,96482.50
2023-02-15T05:58:42.097Z,96486.00
2023-02-15T06:01:14.112Z,96478.63
2023-02-15T06:03:41.341Z,96486.91
2023-02-15T06:06:08.615Z,96482.91
2023-02-15T06:08:36.641Z,96480.78
2023-02-15T06:11:04.031Z,96485.28
2023-02-15T06:13:30.998Z,96476.84
2023-02-15T06:15:57.589Z,96474.13
2023-02-15T06:18:24.333Z,96476.44
2023-02-15T06:20:50.921Z,96479.03
2023-02-15T06:23:17.822Z,96472.59
2023-02-15T06:25:46.653Z,96477.09
2023-02-15T06:28:13.933Z,96484.50
2023-02-15T06:30:40.834Z,96488.84
2023-02-15T06:33:07.428Z,96480.81
2023-02-15T06:35:33.978Z,96492.13
2023-02-15T06:38:00.615Z,96488.56
2023-02-15T06:40:27.249Z,96493.22
2023-02-15T06:42:53.920Z,96483.09
2023-02-15T06:45:20.457Z,96487.97
2023-02-15T06:47:46.996Z,96495.22
2023-02-15T06:50:13.551Z,96497.81
2023-02-15T06:52:40.096Z,96499.81
2023-02-15T06:55:07.149Z,96504.44
2023-02-15T06:57:34.136Z,96493.31
2023-02-15T07:00:00.884Z,96504.94
2023-02-15T07:02:27.542Z,96493.84
2023-02-15T07:04:54.100Z,96493.78
2023-02-15T07:07:20.787Z,96507.69
2023-02-15T07:09:47.333Z,96497.50
2023-02-15T07:12:32.469Z,96497.72
2023-02-15T07:14:59.248Z,96503.41
2023-02-15T07:17:36.896Z,96512.44
2023-02-15T07:20:16.282Z,96501.75
2023-02-15T07:22:43.809Z,96499.72
2023-02-15T07:25:12.484Z,96501.19
2023-02-15T07:27:39.570Z,96502.66
2023-02-15T07:30:08.356Z,96508.88
2023-02-15T07:32:34.947Z,96499.75
2023-02-15T07:35:02.264Z,96496.41
2023-02-15T07:37:29.302Z,96491.56
2023-02-15T07:39:55.973Z,96490.34
2023-02-15T07:42:22.933Z,96484.91
2023-02-15T07:44:49.826Z,96488.91
2023-02-15T07:47:16.457Z,96497.47
2023-02-15T07:49:43.067Z,96487.50
2023-02-15T07:52:09.698Z,96486.53
2023-02-15T07:54:36.259Z,96484.28
2023-02-15T07:57:03.026Z,96476.72
2023-02-15T07:59:29.619Z,96471.56
2023-02-15T08:01:57.434Z,96471.38
2023-02-15T08:04:24.677Z,96471.94
2023-02-15T08:06:54.030Z,96475.69
2023-02-15T08:09:20.819Z,96471.41
2023-02-15T08:11:48.097Z,96470.50
2023-02-15T08:14:17.623Z,96470.38
2023-02-15T08:16:49.772Z,96474.75
2023-02-15T08:19:28.470Z,96471.38
2023-02-15T08:22:00.436Z,96467.03
2023-02-15T08:24:29.552Z,96464.97
2023-02-15T08:26:56.636Z,96472.88
2023-02-15T08:29:25.854Z,96467.81
2023-02-15T08:32:03.321Z,96472.25
2023-02-15T08:34:32.576Z,96468.16
2023-02-15T08:36:59.192Z,96469.25
2023-02-15T08:39:25.898Z,96462.59
2023-02-15T08:41:52.434Z,96460.72
2023-02-15T08:44:20.438Z,96472.16
2023-02-15T08:46:48.766Z,96465.63
2023-02-15T08:49:21.160Z,96467.91
2023-02-15T08:51:48.632Z,96461.13
2023-02-15T08:54:18.575Z,96466.09
2023-02-15T08:56:45.869Z,96462.81
2023-02-15T08:59:18.174Z,96465.22
2023-02-15T09:01:45.658Z,96470.19
2023-02-15T09:04:13.860Z,96472.41
2023-02-15T09:06:42.140Z,96465.75
2023-02-15T09:09:08.956Z,96460.16
2023-02-15T09:11:41.639Z,96475.66
2023-02-15T09:14:11.017Z,96468.69
2023-02-15T09:16:39.042Z,96460.56
2023-02-15T09:19:06.800Z,96459.53
2023-02-15T09:21:36.128Z,96457.56
2023-02-15T09:24:05.588Z,96454.00
2023-02-15T09:26:33.675Z,96451.94
2023-02-15T09:29:02.418Z,96452.94
2023-02-15T09:31:32.016Z,96443.53
2023-02-15T09:34:01.622Z,96446.88
2023-02-15T09:36:39.894Z,96441.19
2023-02-15T09:39:11.097Z,96449.94
2023-02-15T09:41:53.103Z,96442.81
2023-02-15T09:44:22.270Z,96444.47
2023-02-15T09:47:32.440Z,96445.97
2023-02-15T09:50:24.063Z,96446.75
2023-02-15T09:53:38.784Z,96450.00
2023-02-15T09:56:25.872Z,96452.38
2023-02-15T09:59:08.915Z,96449.41
2023-02-15T10:01:53.494Z,96443.34
2023-02-15T10:04:56.735Z,96445.50
2023-02-15T10:07:35.582Z,96439.78
2023-02-15T10:10:18.851Z,96434.34
2023-02-15T10:13:31.784Z,96449.59
2023-02-15T10:16:21.748Z,96438.91
2023-02-15T10:19:12.744Z,96436.84
2023-02-15T10:21:57.790Z,96435.72
2023-02-15T10:24:31.649Z,96441.22
2023-02-15T10:27:01.744Z,96434.22
2023-02-15T10:29:34.172Z,96429.63
2023-02-15T10:32:07.847Z,96432.63
2023-02-15T10:35:16.814Z,96430.09
2023-02-15T10:38:24.791Z,96425.97
2023-02-15T10:41:12.896Z,96422.09
2023-02-15T10:43:50.387Z,96413.53
2023-02-15T10:46:35.125Z,96419.53
2023-02-15T10:49:16.767Z,96408.84
2023-02-15T10:51:52.345Z,96406.53
2023-02-15T10:54:42.647Z,96398.00
2023-02-15T10:57:31.672Z,96400.34
2023-02-15T11:00:11.787Z,96387.88
2023-02-15T11:02:55.558Z,96385.53
2023-02-15T11:06:02.338Z,96382.13
2023-02-15T11:08:32.149Z,96384.25
2023-02-15T11:11:02.980Z,96375.25
2023-02-15T11:13:37.705Z,96366.94
2023-02-15T11:16:22.423Z,96362.19
2023-02-15T11:19:06.895Z,96364.28
2023-02-15T11:21:50.815Z,96349.38
2023-02-15T11:24:20.983Z,96350.09
2023-02-15T11:27:19.486Z,96334.00
2023-02-15T11:30:10.266Z,96342.38
2023-02-15T11:32:41.131Z,96331.78
2023-02-15T11:35:10.733Z,96322.75
2023-02-15T11:37:43.155Z,96328.81
2023-02-15T11:40:25.621Z,96321.22
2023-02-15T11:42:56.598Z,96322.50
2023-02-15T11:45:31.407Z,96319.34
2023-02-15T11:48:00.213Z,96311.06
2023-02-15T11:50:29.704Z,96305.63
2023-02-15T11:53:05.184Z,96311.09
2023-02-15T11:55:32.114Z,96303.38
2023-02-15T11:58:08.105Z,96299.47
2023-02-15T12:00:47.615Z,96287.09
2023-02-15T12:03:23.417Z,96282.34
2023-02-15T12:05:55.455Z,96289.41
2023-02-15T12:08:23.220Z,96283.81
2023-02-15T12:11:01.832Z,96286.75
2023-02-15T12:13:28.584Z,96284.66
2023-02-15T12:15:58.436Z,96272.25
2023-02-15T12:18:40.426Z,96267.50
2023-02-15T12:21:32.231Z,96272.94
2023-02-15T12:24:13.132Z,96261.13
2023-02-15T12:26:40.093Z,96260.47
2023-02-15T12:29:17.498Z,96261.88
2023-02-15T12:31:52.124Z,96251.50
2023-02-15T12:34:31.896Z,96247.09
2023-02-15T12:37:03.597Z,96248.22
2023-02-15T12:39:32.979Z,96243.75
2023-02-15T12:42:04.686Z,96244.00
2023-02-15T12:44:35.992Z,96243.31
2023-02-15T12:47:10.077Z,96246.69
2023-02-15T12:49:39.687Z,96240.69
2023-02-15T12:52:25.298Z,96237.41
2023-02-15T12:54:52.715Z,96233.25
2023-02-15T12:57:24.237Z,96235.72
2023-02-15T12:59:55.897Z,96224.03
2023-02-15T13:02:45.452Z,96220.94
2023-02-15T13:05:36.990Z,96224.19
2023-02-15T13:08:12.611Z,96217.25
2023-02-15T13:10:54.854Z,96209.16
2023-02-15T13:13:26.626Z,96209.00
2023-02-15T13:15:56.619Z,96201.78
2023-02-15T13:18:34.881Z,96204.81
2023-02-15T13:21:14.799Z,96203.97
2023-02-15T13:23:47.911Z,96190.66
2023-02-15T13:26:21.302Z,96198.53
2023-02-15T13:28:55.097Z,96196.22
2023-02-15T13:31:25.124Z,96188.53
2023-02-15T13:34:04.084Z,96196.28
2023-02-15T13:36:42.380Z,96193.34
2023-02-15T13:39:35.047Z,96181.53
2023-02-15T13:42:04.531Z,96193.44
2023-02-15T13:44:54.891Z,96187.25
2023-02-15T13:47:45.950Z,96184.28
2023-02-15T13:50:32.591Z,96186.75
2023-02-15T13:53:31.635Z,96200.41
2023-02-15T13:56:04.100Z,96198.53
2023-02-15T13:58:42.782Z,96190.75
2023-02-15T14:01:14.416Z,96198.53
2023-02-15T14:04:02.923Z,96190.53
2023-02-15T14:06:39.719Z,96190.47
2023-02-15T14:09:15.717Z,96193.47
2023-02-15T14:12:07.057Z,96190.59
2023-02-15T14:15:11.555Z,96194.84
2023-02-15T14:18:07.575Z,96194.47
2023-02-15T14:20:57.976Z,96182.09
2023-02-15T14:23:50.012Z,96183.09
2023-02-15T14:26:37.054Z,96183.31
2023-02-15T14:29:23.274Z,96177.97
2023-02-15T14:31:56.265Z,96190.28
2023-02-15T14:34:38.424Z,96181.56
2023-02-15T14:37:05.553Z,96180.38
2023-02-15T14:40:03.433Z,96181.38
2023-02-15T14:42:45.353Z,96180.84
2023-02-15T14:45:54.018Z,96176.72
2023-02-15T14:48:20.524Z,96171.72
2023-02-15T14:50:52.538Z,96170.56
2023-02-15T14:53:27.684Z,96168.72
2023-02-15T14:56:09.373Z,96175.06
2023-02-15T14:58:36.755Z,96177.34
2023-02-15T15:01:13.639Z,96177.69
2023-02-15T15:03:54.076Z,96171.41
2023-02-15T15:06:32.935Z,96189.84
2023-02-15T15:09:21.645Z,96186.00
2023-02-15T15:11:52.759Z,96186.06
2023-02-15T15:14:46.739Z,96185.34
2023-02-15T15:17:32.066Z,96183.59
2023-02-15T15:20:05.544Z,96183.41
2023-02-15T15:22:33.596Z,96179.78
2023-02-15T15:25:24.263Z,96186.50
2023-02-15T15:27:54.858Z,96188.19
2023-02-15T15:30:24.600Z,96190.16
2023-02-15T15:32:58.815Z,96195.25
2023-02-15T15:35:28.171Z,96189.09
2023-02-15T15:38:36.581Z,96197.16
2023-02-15T15:41:37.040Z,96197.22
2023-02-15T15:44:22.455Z,96198.44
2023-02-15T15:47:10.824Z,96204.63
2023-02-15T15:49:39.297Z,96204.72
2023-02-15T15:52:18.009Z,96206.56
2023-02-15T15:54:47.246Z,96203.50
2023-02-15T15:57:22.903Z,96197.56
2023-02-15T15:59:50.461Z,96205.59
2023-02-15T16:02:18.304Z,96204.44
2023-02-15T16:04:48.005Z,96211.22
2023-02-15T16:07:17.638Z,96212.47
2023-02-15T16:10:07.149Z,96212.72
2023-02-15T16:12:36.248Z,96211.28
2023-02-15T16:15:15.221Z,96217.19
2023-02-15T16:17:46.061Z,96224.06
2023-02-15T16:20:19.793Z,96218.00
2023-02-15T16:23:17.128Z,96217.09
2023-02-15T16:26:21.577Z,96223.47
2023-02-15T16:28:55.582Z,96228.75
2023-02-15T16:31:23.651Z,96232.88
2023-02-15T16:33:54.151Z,96235.19
2023-02-15T16:36:26.555Z,96244.59
2023-02-15T16:38:53.067Z,96252.31
2023-02-15T16:41:30.372Z,96245.13
2023-02-15T16:44:01.198Z,96251.69
2023-02-15T16:46:50.380Z,96256.19
2023-02-15T16:49:22.678Z,96257.94
2023-02-15T16:52:17.277Z,96255.47
2023-02-15T16:54:44.064Z,96264.63
2023-02-15T16:57:22.633Z,96258.81
2023-02-15T16:59:51.249Z,96270.47
2023-02-15T17:02:43.053Z,96269.69
2023-02-15T17:05:18.581Z,96275.56
2023-02-15T17:08:14.276Z,96277.28
2023-02-15T17:10:42.993Z,96277.59
2023-02-15T17:13:14.620Z,96270.00
2023-02-15T17:16:06.098Z,96275.84
2023-02-15T17:18:46.075Z,96279.66
2023-02-15T17:21:18.194Z,96287.63
2023-02-15T17:23:50.582Z,96283.47
2023-02-15T17:26:23.266Z,96286.78
2023-02-15T17:29:00.509Z,96287.94
2023-02-15T17:31:33.092Z,96285.81
2023-02-15T17:34:01.510Z,96294.00
2023-02-15T17:36:30.743Z,96301.44
2023-02-15T17:39:03.191Z,96295.88
2023-02-15T17:41:35.263Z,96295.19
2023-02-15T17:44:03.702Z,96290.19
2023-02-15T17:46:38.048Z,96283.88
2023-02-15T17:49:08.270Z,96287.44
2023-02-15T17:51:35.994Z,96287.88
2023-02-15T17:54:22.120Z,96297.94
2023-02-15T17:56:48.674Z,96293.50
2023-02-15T17:59:15.233Z,96302.88
2023-02-15T18:02:07.059Z,96301.59
2023-02-15T18:04:55.089Z,96310.50
2023-02-15T18:07:40.222Z,96304.63
2023-02-15T18:10:37.183Z,96307.13
2023-02-15T18:13:04.426Z,96311.50
2023-02-15T18:15:31.117Z,96306.97
2023-02-15T18:17:57.793Z,96310.44
2023-02-15T18:20:31.304Z,96307.84
2023-02-15T18:22:58.103Z,96308.88
2023-02-15T18:25:25.537Z,96308.13
2023-02-15T18:27:55.129Z,96308.97
2023-02-15T18:30:25.486Z,96310.75
2023-02-15T18:32:53.907Z,96315.06
2023-02-15T18:35:24.547Z,96322.97
2023-02-15T18:37:52.486Z,96319.31
2023-02-15T18:40:25.746Z,96322.72
2023-02-15T18:42:52.692Z,96328.03
2023-02-15T18:45:22.469Z,96323.13
2023-02-15T18:47:49.208Z,96325.84
2023-02-15T18:50:18.699Z,96337.44
2023-02-15T18:52:47.217Z,96324.16
2023-02-15T18:55:18.761Z,96326.38
2023-02-15T18:57:50.630Z,96326.84
2023-02-15T19:00:20.021Z,96317.78
2023-02-15T19:02:47.070Z,96320.38
2023-02-15T19:05:14.786Z,96323.72
2023-02-15T19:07:43.002Z,96322.97
2023-02-15T19:10:18.035Z,96327.34
2023-02-15T19:12:45.058Z,96325.28
2023-02-15T19:15:21.263Z,96329.00
2023-02-15T19:17:47.867Z,96331.88
2023-02-15T19:20:18.750Z,96340.06
2023-02-15T19:22:47.897Z,96335.53
2023-02-15T19:25:24.876Z,96333.16
2023-02-15T19:27:52.965Z,96339.47
2023-02-15T19:30:22.904Z,96337.41
2023-02-15T19:32:49.483Z,96331.81
2023-02-15T19:35:22.359Z,96336.78
2023-02-15T19:37:57.623Z,96328.31
2023-02-15T19:40:26.842Z,96325.41
2023-02-15T19:42:53.490Z,96325.41
2023-02-15T19:45:24.758Z,96334.44
2023-02-15T19:47:53.849Z,96326.63
2023-02-15T19:50:33.084Z,96332.84
2023-02-15T19:53:00.010Z,96335.94
2023-02-15T19:55:31.322Z,96330.22
2023-02-15T19:57:58.956Z,96325.88
2023-02-15T20:00:28.392Z,96331.09
2023-02-15T20:02:56.608Z,96330.44
2023-02-15T20:05:23.975Z,96331.38
2023-02-15T20:07:52.403Z,96323.97
2023-02-15T20:10:24.994Z,96321.81
2023-02-15T20:12:51.848Z,96327.22
2023-02-15T20:15:18.494Z,96327.09
2023-02-15T20:17:45.191Z,96318.47
2023-02-15T20:20:13.490Z,96314.75
2023-02-15T20:22:42.343Z,96315.06
2023-02-15T20:25:18.917Z,96311.91
2023-02-15T20:27:45.559Z,96312.94
2023-02-15T20:30:30.219Z,96318.78
2023-02-15T20:32:56.914Z,96309.03
2023-02-15T20:35:26.112Z,96308.94
2023-02-15T20:37:54.674Z,96305.50
2023-02-15T20:40:24.959Z,96306.72
2023-02-15T20:42:51.538Z,96305.03
2023-02-15T20:45:21.552Z,96307.25
2023-02-15T20:47:49.229Z,96310.06
2023-02-15T20:50:22.055Z,96310.97
2023-02-15T20:52:50.720Z,96312.94
2023-02-15T20:55:29.230Z,96305.72
2023-02-15T20:57:56.561Z,96309.69
2023-02-15T21:00:26.298Z,96314.13
2023-02-15T21:02:56.910Z,96311.31
2023-02-15T21:05:27.559Z,96309.47
2023-02-15T21:07:54.885Z,96315.50
2023-02-15T21:10:27.578Z,96303.09
2023-02-15T21:12:54.456Z,96312.09
2023-02-15T21:15:27.309Z,96309.84
2023-02-15T21:17:54.379Z,96310.22
2023-02-15T21:20:21.296Z,96313.94
2023-02-15T21:22:48.543Z,96314.13
2023-02-15T21:25:18.971Z,96319.28
2023-02-15T21:27:46.006Z,96327.03
2023-02-15T21:30:17.373Z,96324.34
2023-02-15T21:32:44.223Z,96314.19
2023-02-15T21:35:15.423Z,96312.88
2023-02-15T21:37:43.547Z,96314.34
2023-02-15T21:40:22.518Z,96323.34
2023-02-15T21:43:08.154Z,96320.47
2023-02-15T21:45:53.361Z,96316.47
2023-02-15T21:48:21.776Z,96323.84
2023-02-15T21:51:10.579Z,96327.47
2023-02-15T21:53:42.494Z,96319.56
2023-02-15T21:56:11.954Z,96325.16
2023-02-15T21:58:38.501Z,96321.81
2023-02-15T22:01:06.742Z,96315.22
2023-02-15T22:03:36.707Z,96327.66
2023-02-15T22:06:04.712Z,96323.56
2023-02-15T22:08:31.569Z,96317.47
2023-02-15T22:10:58.271Z,96317.22
2023-02-15T22:13:28.718Z,96316.25
2023-02-15T22:15:56.500Z,96323.69
2023-02-15T22:18:31.358Z,96321.09
2023-02-15T22:21:00.713Z,96319.25
2023-02-15T22:23:27.389Z,96309.72
2023-02-15T22:25:57.579Z,96299.34
2023-02-15T22:28:34.313Z,96293.97
2023-02-15T22:31:02.859Z,96292.97
2023-02-15T22:33:32.397Z,96302.56
2023-02-15T22:35:59.140Z,96287.50
2023-02-15T22:38:25.976Z,96283.88
2023-02-15T22:40:55.522Z,96281.59
2023-02-15T22:43:33.288Z,96279.72
2023-02-15T22:46:03.434Z,96277.31
2023-02-15T22:48:30.439Z,96282.38
2023-02-15T22:50:57.387Z,96278.88
2023-02-15T22:53:23.911Z,96271.75
2023-02-15T22:55:50.902Z,96274.59
2023-02-15T22:58:22.487Z,96269.19
2023-02-15T23:00:49.311Z,96260.00
2023-02-15T23:03:16.728Z,96265.81
2023-02-15T23:05:43.722Z,96265.47
2023-02-15T23:08:11.459Z,96258.03
2023-02-15T23:10:39.237Z,96260.94
2023-02-15T23:13:25.603Z,96262.69
2023-02-15T23:15:58.270Z,96263.91
2023-02-15T23:18:32.392Z,96261.03
2023-02-15T23:21:03.074Z,96262.34
2023-02-15T23:23:38.876Z,96259.75
2023-02-15T23:26:15.130Z,96268.34
2023-02-15T23:28:41.967Z,96262.69
2023-02-15T23:31:19.774Z,96267.34
2023-02-15T23:33:47.269Z,96258.63
2023-02-15T23:36:37.997Z,96265.28
2023-02-15T23:39:36.042Z,96259.84
2023-02-15T23:42:10.113Z,96260.66
2023-02-15T23:44:37.465Z,96258.91
2023-02-15T23:47:04.889Z,96257.31
2023-02-15T23:49:31.493Z,96252.31
2023-02-15T23:51:58.136Z,96250.56
2023-02-15T23:54:26.131Z,96251.13
2023-02-15T23:56:59.691Z,96254.53
2023-02-15T23:59:32.386Z,96255.22
